Time;durP1;ratioP1;P1;durP2;ratioP2;P2;SDS_P1;SDS_P2;PMS_P1;PMS_P2;Temp;Humidity;BMP_temperature;BMP_pressure;BME280_temperature;BME280_humidity;BME280_pressure;Samples;Min_cycle;Max_cycle;Signal;HPM_P1;HPM_P2
2023/04/22 00:00:53;;;;;;;4.33;3.10;;;;;;;20.46;53.52;96962.78;4952358;29;20231;-29
2023/04/22 00:03:23;;;;;;;3.00;2.80;;;;;;;20.46;53.50;96959.38;4925733;29;20575;-31
2023/04/22 00:05:50;;;;;;;4.20;2.93;;;;;;;20.46;53.37;96962.78;4940402;29;20205;-30
2023/04/22 00:08:16;;;;;;;3.10;2.73;;;;;;;20.07;54.06;96899.69;4938919;28;20267;-30
2023/04/22 00:10:43;;;;;;;3.70;3.17;;;;;;;20.46;53.35;96964.50;4950578;29;20310;-29
2023/04/22 00:13:09;;;;;;;3.57;2.67;;;;;;;20.44;54.26;96961.03;4943056;29;20621;-30
2023/04/22 00:15:36;;;;;;;4.57;3.03;;;;;;;20.41;53.68;96945.63;4942801;29;20204;-30
2023/04/22 00:18:03;;;;;;;3.43;3.07;;;;;;;20.43;53.70;96949.94;4952093;29;20234;-30
2023/04/22 00:20:31;;;;;;;3.50;3.07;;;;;;;20.47;53.56;96951.78;4945020;29;20205;-30
2023/04/22 00:22:58;;;;;;;3.17;2.87;;;;;;;20.44;53.49;96943.16;4945164;29;20380;-29
2023/04/22 00:25:24;;;;;;;2.70;2.50;;;;;;;20.47;53.55;96949.22;4943722;29;20196;-30
2023/04/22 00:27:51;;;;;;;2.73;2.53;;;;;;;20.48;54.09;96948.38;4951607;28;20207;-29
2023/04/22 00:30:17;;;;;;;3.67;2.63;;;;;;;20.47;53.66;96948.34;4942600;29;20205;-31
2023/04/22 00:32:44;;;;;;;2.93;2.60;;;;;;;20.48;53.64;96947.50;4932175;29;20241;-29
2023/04/22 00:35:11;;;;;;;2.90;2.70;;;;;;;20.50;53.90;96953.53;4946340;28;20318;-30
2023/04/22 00:37:37;;;;;;;2.90;2.70;;;;;;;20.46;53.80;96942.38;4948780;28;20625;-29
2023/04/22 00:40:05;;;;;;;2.83;2.60;;;;;;;20.50;53.69;96951.84;4945178;29;20220;-30
2023/04/22 00:42:32;;;;;;;3.27;2.83;;;;;;;20.51;53.64;96950.13;4955804;29;20215;-30
2023/04/22 00:44:59;;;;;;;3.30;3.00;;;;;;;20.51;53.85;96945.03;4950137;28;20287;-30
2023/04/22 00:47:26;;;;;;;2.23;2.13;;;;;;;20.50;53.74;96943.31;4934879;29;20204;-29
2023/04/22 00:49:53;;;;;;;2.60;2.40;;;;;;;20.50;53.58;96944.19;4923561;29;20248;-30
2023/04/22 00:52:20;;;;;;;2.90;2.70;;;;;;;20.48;53.37;96944.97;4945766;29;20264;-30
2023/04/22 00:54:48;;;;;;;3.17;2.80;;;;;;;20.50;53.75;96954.41;4955946;29;20236;-30
2023/04/22 00:57:15;;;;;;;3.30;2.77;;;;;;;20.53;53.46;96951.03;4955408;29;20220;-34
2023/04/22 00:59:41;;;;;;;2.83;2.57;;;;;;;20.53;53.64;96949.38;4935199;29;20220;-31
2023/04/22 01:02:08;;;;;;;3.80;2.87;;;;;;;20.53;53.16;96953.59;4950472;29;20705;-30
2023/04/22 01:04:35;;;;;;;3.43;2.60;;;;;;;20.53;53.67;96951.91;4945169;29;20208;-30
2023/04/22 01:07:01;;;;;;;4.00;2.80;;;;;;;20.53;53.51;96949.38;4955007;29;20228;-34
2023/04/22 01:09:28;;;;;;;2.73;2.53;;;;;;;20.50;53.52;96954.41;4945932;28;20308;-30
2023/04/22 01:11:55;;;;;;;2.60;2.40;;;;;;;20.41;53.55;96933.75;4937960;29;20660;-29
2023/04/22 01:14:21;;;;;;;2.77;2.53;;;;;;;20.54;53.26;96951.09;4943272;29;20643;-29
2023/04/22 01:16:48;;;;;;;2.77;2.57;;;;;;;20.53;53.34;96946.81;4916682;29;20583;-29
2023/04/22 01:19:16;;;;;;;3.40;2.80;;;;;;;20.47;53.46;96933.91;4932797;29;20235;-30
2023/04/22 01:21:44;;;;;;;3.80;2.73;;;;;;;20.51;53.52;96947.59;4951332;28;20212;-30
2023/04/22 01:24:10;;;;;;;2.97;2.73;;;;;;;20.49;53.49;96936.50;4941206;29;20713;-30
2023/04/22 01:26:37;;;;;;;3.00;2.70;;;;;;;20.55;53.46;96947.72;4945702;29;20299;-31
2023/04/22 01:29:04;;;;;;;3.17;2.87;;;;;;;20.48;53.37;96938.16;4955158;28;20247;-29
2023/04/22 01:31:30;;;;;;;3.03;2.73;;;;;;;20.56;53.49;96951.13;4944136;29;20671;-31
2023/04/22 01:33:57;;;;;;;2.80;2.60;;;;;;;20.54;53.65;96940.88;4946560;29;20263;-30
2023/04/22 01:36:24;;;;;;;4.17;2.83;;;;;;;20.55;53.60;96937.50;4945448;29;20212;-30
2023/04/22 01:38:50;;;;;;;2.97;2.63;;;;;;;20.55;53.49;96945.16;4954233;28;20224;-31
2023/04/22 01:41:17;;;;;;;3.03;2.73;;;;;;;20.48;53.74;96933.06;4952971;29;20291;-31
2023/04/22 01:43:44;;;;;;;3.10;2.60;;;;;;;20.51;53.53;96935.69;4934060;29;20205;-30
2023/04/22 01:46:10;;;;;;;3.33;2.50;;;;;;;20.55;53.64;96945.16;4917085;29;20680;-30
2023/04/22 01:48:37;;;;;;;2.83;2.63;;;;;;;20.53;53.50;96944.25;4951277;28;20239;-31
2023/04/22 01:51:04;;;;;;;2.83;2.63;;;;;;;20.56;53.46;96951.13;4948254;28;20251;-30
2023/04/22 01:53:30;;;;;;;2.87;2.67;;;;;;;20.56;53.22;96953.66;4946835;29;20207;-29
2023/04/22 01:55:57;;;;;;;2.93;2.67;;;;;;;20.53;53.36;96951.91;4949706;29;20211;-31
2023/04/22 01:58:23;;;;;;;3.33;2.63;;;;;;;20.56;53.39;96951.13;4947350;29;20228;-30
2023/04/22 02:00:50;;;;;;;3.20;2.53;;;;;;;20.52;53.15;96950.16;4945600;29;20224;-29
2023/04/22 02:03:17;;;;;;;3.03;2.77;;;;;;;20.55;53.16;96963.03;4948035;28;20232;-30
2023/04/22 02:05:43;;;;;;;2.93;2.70;;;;;;;20.55;53.32;96957.94;4952697;29;20212;-29
2023/04/22 02:08:10;;;;;;;3.60;2.70;;;;;;;20.56;53.17;96966.44;4931362;28;20216;-30
2023/04/22 02:10:37;;;;;;;3.00;2.80;;;;;;;20.56;53.35;96969.00;4942807;29;20205;-29
2023/04/22 02:13:03;;;;;;;3.17;2.87;;;;;;;20.51;53.64;96955.25;4947592;29;20756;-30
2023/04/22 02:15:30;;;;;;;2.50;2.30;;;;;;;20.55;53.65;96963.03;4954245;29;20204;-29
2023/04/22 02:17:56;;;;;;;2.90;2.60;;;;;;;20.56;53.48;96964.75;4952283;28;20220;-31
2023/04/22 02:20:23;;;;;;;2.83;2.50;;;;;;;20.55;53.60;96975.81;4952685;28;20231;-30
2023/04/22 02:22:49;;;;;;;2.70;2.50;;;;;;;20.56;53.63;96962.19;4946204;28;20225;-30
2023/04/22 02:25:16;;;;;;;3.13;2.60;;;;;;;20.54;53.46;96958.75;4950288;29;20653;-29
2023/04/22 02:27:43;;;;;;;3.13;2.40;;;;;;;20.55;53.60;96968.16;4946562;28;20233;-30
2023/04/22 02:30:10;;;;;;;3.30;2.70;;;;;;;20.56;53.55;96966.44;4949783;28;20220;-30
2023/04/22 02:32:37;;;;;;;3.83;2.67;;;;;;;20.52;53.32;96952.72;4945748;28;20288;-29
2023/04/22 02:35:04;;;;;;;3.27;2.97;;;;;;;20.55;53.37;96960.50;4946871;29;20258;-33
2023/04/22 02:37:31;;;;;;;3.17;2.87;;;;;;;20.56;53.58;96958.78;4944303;29;20228;-29
2023/04/22 02:39:57;;;;;;;2.83;2.63;;;;;;;20.54;53.40;96955.34;4936487;29;20308;-30
2023/04/22 02:42:24;;;;;;;3.17;2.80;;;;;;;20.55;53.12;96962.16;4948551;28;20228;-30
2023/04/22 02:44:51;;;;;;;3.10;2.90;;;;;;;20.56;53.40;96958.78;4944728;29;20211;-29
2023/04/22 02:47:17;;;;;;;3.10;2.90;;;;;;;20.49;53.79;96951.81;4947956;28;20667;-30
2023/04/22 02:49:44;;;;;;;3.27;2.67;;;;;;;20.55;53.17;96957.06;4944445;29;20224;-29
2023/04/22 02:52:10;;;;;;;2.77;2.57;;;;;;;20.55;53.25;96951.97;4951793;29;20647;-30
2023/04/22 02:54:37;;;;;;;3.30;2.90;;;;;;;20.56;53.13;96954.53;4944317;28;20263;-30
2023/04/22 02:57:03;;;;;;;2.90;2.70;;;;;;;20.47;52.80;96936.47;4950893;29;20676;-29
2023/04/22 02:59:30;;;;;;;2.87;2.60;;;;;;;20.53;53.40;96945.94;4951601;28;20590;-29
2023/04/22 03:01:57;;;;;;;3.50;2.67;;;;;;;20.55;53.55;96946.84;4948854;28;20208;-30
2023/04/22 03:04:24;;;;;;;3.10;2.87;;;;;;;20.56;53.41;96946.00;4944935;29;20224;-33
2023/04/22 03:06:51;;;;;;;2.90;2.70;;;;;;;20.27;53.39;96899.38;4948088;29;20228;-29
2023/04/22 03:09:17;;;;;;;2.73;2.43;;;;;;;20.52;53.43;96947.63;4951315;29;20304;-31
2023/04/22 03:11:45;;;;;;;3.10;2.67;;;;;;;20.57;53.22;96957.97;4940527;29;20207;-29
2023/04/22 03:14:11;;;;;;;3.27;2.97;;;;;;;20.54;53.74;96958.75;4941898;29;20279;-30
2023/04/22 03:16:38;;;;;;;3.00;2.80;;;;;;;20.55;53.37;96954.50;4945909;29;20281;-30
2023/04/22 03:19:05;;;;;;;4.37;2.70;;;;;;;20.50;52.93;96954.41;4941845;28;20225;-30
2023/04/22 03:21:31;;;;;;;2.97;2.70;;;;;;;20.55;53.19;96970.69;4934931;29;20262;-30
2023/04/22 03:23:58;;;;;;;2.80;2.60;;;;;;;20.53;53.39;96957.03;4946184;29;20204;-29
2023/04/22 03:26:25;;;;;;;3.00;2.70;;;;;;;20.55;53.37;96968.16;4951476;29;20291;-30
2023/04/22 03:28:51;;;;;;;3.10;2.90;;;;;;;20.55;53.25;96968.16;4949932;28;20279;-30
2023/04/22 03:31:18;;;;;;;3.13;2.70;;;;;;;20.55;53.37;96968.16;4951643;29;20738;-32
2023/04/22 03:33:45;;;;;;;3.30;3.00;;;;;;;20.54;53.25;96974.06;4946895;29;20259;-29
2023/04/22 03:36:11;;;;;;;2.93;2.73;;;;;;;20.51;53.19;96961.22;4950837;29;20208;-30
2023/04/22 03:38:38;;;;;;;2.90;2.70;;;;;;;20.56;53.24;96967.31;4949326;28;20232;-29
2023/04/22 03:41:04;;;;;;;3.47;2.70;;;;;;;20.56;53.22;96958.78;4951917;29;20287;-29
2023/04/22 03:43:31;;;;;;;3.10;2.90;;;;;;;20.56;53.40;96963.88;4952826;29;20731;-30
2023/04/22 03:45:58;;;;;;;2.60;2.40;;;;;;;20.46;53.20;96942.38;4935393;29;20204;-29
2023/04/22 03:48:25;;;;;;;4.10;3.00;;;;;;;20.55;53.66;96951.97;4941949;29;20228;-30
2023/04/22 03:50:51;;;;;;;3.27;2.93;;;;;;;20.55;53.21;96955.38;4945725;29;20727;-30
2023/04/22 03:53:18;;;;;;;2.67;2.47;;;;;;;20.55;53.24;96952.81;4949738;29;20215;-30
2023/04/22 03:55:44;;;;;;;3.07;2.87;;;;;;;20.56;53.06;96948.56;4937846;29;20213;-29
2023/04/22 03:58:11;;;;;;;3.00;2.60;;;;;;;20.53;53.52;96954.47;4947437;29;20230;-29
2023/04/22 04:00:37;;;;;;;2.97;2.77;;;;;;;20.55;53.51;96957.06;4943305;28;20220;-30
2023/04/22 04:03:04;;;;;;;3.30;3.00;;;;;;;20.54;53.20;96953.63;4953182;29;20230;-30
2023/04/22 04:05:31;;;;;;;2.93;2.73;;;;;;;20.54;53.01;96957.91;4947311;29;20621;-29
2023/04/22 04:07:57;;;;;;;4.00;3.03;;;;;;;20.54;52.82;96951.09;4951043;28;20211;-30
2023/04/22 04:10:24;;;;;;;2.63;2.43;;;;;;;20.52;53.06;96950.16;4944934;29;20236;-30
2023/04/22 04:12:51;;;;;;;3.43;3.10;;;;;;;20.53;53.06;96956.16;4952782;28;20200;-29
2023/04/22 04:15:18;;;;;;;3.27;2.97;;;;;;;20.49;53.29;96951.81;4948918;29;20296;-30
2023/04/22 04:17:44;;;;;;;3.53;3.00;;;;;;;20.53;53.26;96962.13;4954429;29;20204;-30
2023/04/22 04:20:11;;;;;;;3.63;2.87;;;;;;;20.52;53.11;96965.47;4954014;29;20314;-31
2023/04/22 04:22:38;;;;;;;3.00;2.70;;;;;;;20.53;52.90;96974.91;4956489;29;20589;-29
2023/04/22 04:25:05;;;;;;;2.87;2.67;;;;;;;20.50;53.10;96962.06;4956078;29;20200;-29
2023/04/22 04:27:32;;;;;;;3.20;3.00;;;;;;;20.51;53.19;96971.44;4955182;29;20244;-30
2023/04/22 04:29:58;;;;;;;3.10;2.80;;;;;;;20.52;53.17;96964.66;4948085;29;20220;-30
2023/04/22 04:32:25;;;;;;;3.33;3.03;;;;;;;20.52;52.84;96964.66;4947373;29;20200;-35
2023/04/22 04:34:53;;;;;;;3.20;2.60;;;;;;;20.51;53.22;96951.00;4956250;28;20196;-29
2023/04/22 04:37:21;;;;;;;2.90;2.70;;;;;;;20.51;53.26;96947.59;4953795;29;20287;-34
2023/04/22 04:39:47;;;;;;;3.47;3.10;;;;;;;20.51;53.27;96948.47;4952158;28;20231;-29
2023/04/22 04:42:14;;;;;;;3.83;2.80;;;;;;;20.50;53.09;96938.22;4948703;29;20287;-30
2023/04/22 04:44:41;;;;;;;2.87;2.67;;;;;;;20.46;52.77;96938.97;4944184;29;20241;-29
2023/04/22 04:47:07;;;;;;;3.00;2.80;;;;;;;20.51;53.19;96945.03;4945477;29;20211;-29
2023/04/22 04:49:38;;;;;;;3.30;3.00;;;;;;;20.48;52.95;96942.41;4949546;28;20592;-29
2023/04/22 04:52:08;;;;;;;3.20;2.90;;;;;;;20.49;52.88;96939.03;4954120;29;20204;-29
2023/04/22 04:54:35;;;;;;;2.90;2.70;;;;;;;20.51;53.02;96952.69;4944734;29;20236;-29
2023/04/22 04:57:02;;;;;;;2.73;2.53;;;;;;;20.51;53.13;96955.25;4948533;28;20224;-29
2023/04/22 04:59:28;;;;;;;3.67;2.90;;;;;;;20.49;53.18;96951.81;4945563;28;20232;-30
2023/04/22 05:01:55;;;;;;;2.93;2.70;;;;;;;20.51;53.09;96962.91;4937570;29;20659;-30
2023/04/22 05:04:21;;;;;;;3.17;2.90;;;;;;;20.47;52.75;96967.09;4946402;29;20241;-30
2023/04/22 05:06:48;;;;;;;3.17;2.87;;;;;;;20.51;53.16;96979.09;4948430;29;20208;-29
2023/04/22 05:09:15;;;;;;;3.27;2.97;;;;;;;20.42;53.10;96960.13;4938388;29;20224;-30
2023/04/22 05:11:42;;;;;;;3.33;3.03;;;;;;;20.52;52.98;96977.41;4952107;29;20204;-30
2023/04/22 05:14:08;;;;;;;6.07;3.37;;;;;;;20.52;53.19;96982.50;4955734;29;20212;-30
2023/04/22 05:16:35;;;;;;;5.73;3.10;;;;;;;20.49;53.15;96975.63;4948229;29;20659;-31
2023/04/22 05:21:30;;;;;;;10.90;3.33;;;;;;;20.52;52.99;96973.16;4932605;29;20223;-29
2023/04/22 05:23:56;;;;;;;9.33;3.83;;;;;;;20.51;52.85;96973.09;4926309;29;20311;-30
2023/04/22 05:26:23;;;;;;;10.43;3.50;;;;;;;20.53;53.21;96982.56;4924237;29;20241;-30
2023/04/22 05:28:50;;;;;;;6.53;3.00;;;;;;;20.53;53.02;96974.91;4911733;29;20283;-35
2023/04/22 05:31:16;;;;;;;9.23;3.23;;;;;;;20.53;53.07;96985.09;4918290;29;20210;-30
2023/04/22 05:33:43;;;;;;;4.67;3.10;;;;;;;20.52;52.82;96980.81;4916516;29;20601;-30
2023/04/22 05:36:09;;;;;;;7.50;3.67;;;;;;;20.53;52.98;96982.56;4912420;29;20693;-30
2023/04/22 05:38:36;;;;;;;7.67;3.70;;;;;;;20.54;53.12;96983.44;4896548;29;20677;-28
2023/04/22 05:41:02;;;;;;;5.93;3.30;;;;;;;20.54;53.13;96979.16;4915641;29;20237;-32
2023/04/22 05:43:29;;;;;;;9.77;3.63;;;;;;;20.54;52.53;96981.72;4917025;29;20237;-30
2023/04/22 05:45:56;;;;;;;8.50;3.00;;;;;;;20.54;53.07;97002.13;4920744;29;20552;-30
2023/04/22 05:48:22;;;;;;;5.83;3.30;;;;;;;20.47;53.03;96972.19;4918367;29;20585;-30
2023/04/22 05:50:49;;;;;;;10.93;3.10;;;;;;;20.55;52.96;96992.81;4905573;29;20217;-33
2023/04/22 05:53:16;;;;;;;4.87;2.97;;;;;;;20.54;53.03;96991.94;4913377;29;20292;-30
2023/04/22 05:55:42;;;;;;;4.83;3.20;;;;;;;20.54;53.09;96991.94;4922004;29;20210;-29
2023/04/22 05:58:09;;;;;;;5.50;3.10;;;;;;;20.54;53.31;96997.03;4898516;29;20213;-29
2023/04/22 06:00:35;;;;;;;3.60;3.00;;;;;;;20.54;52.79;96997.03;4910515;29;20226;-29
2023/04/22 06:03:02;;;;;;;4.93;3.33;;;;;;;20.54;52.90;97007.25;4922954;29;20214;-28
2023/04/22 06:05:29;;;;;;;4.37;3.10;;;;;;;20.54;52.94;96997.03;4921564;29;20764;-30
2023/04/22 06:07:56;;;;;;;6.37;3.20;;;;;;;20.54;53.42;97007.25;4913079;29;20256;-32
2023/04/22 06:10:22;;;;;;;3.87;3.30;;;;;;;20.54;52.98;97004.69;4922002;29;20381;-31
2023/04/22 06:12:49;;;;;;;4.70;3.37;;;;;;;20.54;53.13;97004.69;4917828;29;20240;-28
2023/04/22 06:15:16;;;;;;;6.07;3.23;;;;;;;20.53;53.17;97004.66;4909972;29;20209;-43
2023/04/22 06:17:43;;;;;;;7.13;3.47;;;;;;;20.52;52.92;97013.16;4910974;29;20300;-28
2023/04/22 06:20:10;;;;;;;5.77;3.53;;;;;;;20.54;53.10;97011.50;4911225;29;20268;-32
2023/04/22 06:22:36;;;;;;;7.07;3.07;;;;;;;20.53;53.05;97014.84;4920598;29;20575;-33
2023/04/22 06:25:03;;;;;;;5.43;3.47;;;;;;;20.52;52.84;97013.97;4919549;29;20220;-31
2023/04/22 06:27:30;;;;;;;6.03;3.57;;;;;;;20.51;53.08;97011.41;4915930;29;20210;-30
2023/04/22 06:29:56;;;;;;;4.27;3.40;;;;;;;20.53;52.56;97019.97;4910679;29;20226;-28
2023/04/22 06:32:23;;;;;;;3.40;3.10;;;;;;;20.51;53.07;97019.94;4911644;29;20305;-30
2023/04/22 06:34:49;;;;;;;6.27;2.83;;;;;;;20.52;53.43;97020.81;4903693;29;20292;-30
2023/04/22 06:37:17;;;;;;;5.57;3.50;;;;;;;20.52;53.07;97024.19;4910880;29;20293;-29
2023/04/22 06:39:43;;;;;;;3.53;3.13;;;;;;;20.52;53.69;97025.91;4906077;29;20758;-29
2023/04/22 06:42:10;;;;;;;5.63;3.23;;;;;;;20.52;52.72;97025.91;4920152;29;20386;-30
2023/04/22 06:44:36;;;;;;;5.93;3.43;;;;;;;20.50;53.03;97020.75;4922429;29;20262;-30
2023/04/22 06:47:03;;;;;;;5.47;3.50;;;;;;;20.51;52.95;97021.59;4913963;29;20299;-29
2023/04/22 06:49:30;;;;;;;3.23;2.93;;;;;;;20.50;53.04;97014.78;4908312;29;20252;-33
2023/04/22 06:51:56;;;;;;;5.70;3.17;;;;;;;20.50;53.24;97010.56;4914214;29;20660;-30
2023/04/22 06:54:23;;;;;;;10.40;3.50;;;;;;;20.50;52.81;97012.22;4909178;29;20214;-30
2023/04/22 06:56:49;;;;;;;4.67;3.10;;;;;;;20.50;53.00;97013.09;4912144;29;20217;-30
2023/04/22 06:59:16;;;;;;;4.27;3.30;;;;;;;20.51;53.07;97006.28;4909701;29;20236;-30
2023/04/22 07:01:42;;;;;;;5.07;3.20;;;;;;;20.51;52.99;97008.84;4918507;29;20213;-30
2023/04/22 07:04:09;;;;;;;4.33;3.43;;;;;;;20.50;53.01;97010.56;4909858;29;20226;-30
2023/04/22 07:06:36;;;;;;;3.73;2.90;;;;;;;20.50;52.94;97004.56;4901977;29;20249;-31
2023/04/22 07:09:02;;;;;;;6.40;3.30;;;;;;;20.50;52.71;97012.22;4902521;29;20408;-29
2023/04/22 07:11:30;;;;;;;5.40;3.63;;;;;;;20.49;52.82;97016.47;4912136;29;20212;-29
2023/04/22 07:13:57;;;;;;;4.33;3.30;;;;;;;20.50;52.65;97023.31;4917018;29;20205;-28
2023/04/22 07:16:23;;;;;;;3.70;3.30;;;;;;;20.43;51.72;97010.34;4915062;29;20241;-30
2023/04/22 07:18:50;;;;;;;3.93;3.53;;;;;;;20.49;52.89;97019.00;4892514;29;20230;-28
2023/04/22 07:21:17;;;;;;;4.27;3.33;;;;;;;20.48;52.60;97014.75;4905154;29;20247;-28
2023/04/22 07:23:43;;;;;;;4.53;3.33;;;;;;;20.47;52.96;97012.16;4912413;29;20241;-29
2023/04/22 07:26:10;;;;;;;4.27;3.50;;;;;;;20.48;52.72;97012.19;4905544;29;20631;-30
2023/04/22 07:28:36;;;;;;;4.37;3.33;;;;;;;20.45;52.78;97009.56;4898878;29;20795;-30
2023/04/22 07:31:03;;;;;;;5.07;3.20;;;;;;;20.48;52.67;97016.44;4912298;29;20209;-30
2023/04/22 07:33:29;;;;;;;3.83;3.23;;;;;;;20.48;52.96;97013.88;4918945;29;20442;-31
2023/04/22 07:35:56;;;;;;;3.57;3.23;;;;;;;20.48;53.17;97013.88;4917775;29;20208;-28
2023/04/22 07:38:22;;;;;;;5.87;3.43;;;;;;;20.48;52.95;97003.66;4894384;29;20224;-31
2023/04/22 07:40:49;;;;;;;6.97;3.93;;;;;;;20.48;52.83;96996.00;4903759;29;20754;-30
2023/04/22 07:43:16;;;;;;;3.83;3.47;;;;;;;20.49;52.44;96993.50;4917376;29;20299;-30
2023/04/22 07:45:43;;;;;;;6.77;3.73;;;;;;;20.51;52.40;96993.53;4908168;29;20206;-28
2023/04/22 07:48:09;;;;;;;11.40;4.67;;;;;;;20.52;52.45;96990.16;4917291;29;20292;-30
2023/04/22 07:50:36;;;;;;;17.80;4.50;;;;;;;20.53;52.20;96994.44;4921266;29;20227;-30
2023/04/22 07:53:04;;;;;;;11.00;4.40;;;;;;;20.50;52.38;96990.13;4909282;29;20278;-30
2023/04/22 07:55:31;;;;;;;9.30;4.00;;;;;;;20.52;52.16;97001.22;4923143;29;20210;-29
2023/04/22 07:57:59;;;;;;;11.87;4.30;;;;;;;20.54;52.04;96999.59;4887319;29;20255;-31
2023/04/22 08:00:26;;;;;;;16.97;4.27;;;;;;;20.55;52.45;97003.00;4904279;29;20230;-28
2023/04/22 08:02:52;;;;;;;8.03;3.90;;;;;;;20.56;52.10;97002.16;4920910;29;20213;-28
2023/04/22 08:05:19;;;;;;;11.33;4.10;;;;;;;20.48;52.84;96985.78;4918770;29;20228;-29
2023/04/22 08:07:46;;;;;;;8.77;3.70;;;;;;;20.58;52.49;96992.88;4918525;29;20214;-30
2023/04/22 08:10:13;;;;;;;6.07;3.43;;;;;;;20.59;52.62;96997.16;4914047;29;20255;-32
2023/04/22 08:12:39;;;;;;;7.60;3.43;;;;;;;20.59;52.24;96999.69;4908642;29;20228;-30
2023/04/22 08:15:06;;;;;;;13.13;3.87;;;;;;;20.61;52.23;97000.59;4915324;29;20272;-30
2023/04/22 08:17:33;;;;;;;11.53;3.90;;;;;;;20.61;52.42;97005.72;4909351;29;20268;-30
2023/04/22 08:19:59;;;;;;;5.00;3.23;;;;;;;20.61;52.74;97004.03;4920579;29;20256;-30
2023/04/22 08:22:26;;;;;;;6.53;3.60;;;;;;;20.62;52.13;96994.66;4923810;29;20290;-36
2023/04/22 08:24:52;;;;;;;6.93;3.27;;;;;;;20.61;52.35;96998.94;4917013;29;20206;-28
2023/04/22 08:27:22;;;;;;;5.00;3.63;;;;;;;20.61;52.24;96995.50;4912814;29;20229;-30
2023/04/22 08:29:48;;;;;;;10.83;3.50;;;;;;;20.59;52.25;97000.56;4911530;29;20218;-43
2023/04/22 08:32:15;;;;;;;5.87;3.33;;;;;;;20.59;52.10;97000.56;4909268;29;20671;-33
2023/04/22 08:34:42;;;;;;;5.57;3.40;;;;;;;20.60;52.30;96997.19;4903710;29;20202;-30
2023/04/22 08:37:09;;;;;;;8.07;3.60;;;;;;;20.60;52.30;96996.34;4905340;29;20724;-30
2023/04/22 08:39:36;;;;;;;6.13;3.57;;;;;;;20.60;52.05;97016.75;4904439;29;20230;-26
2023/04/22 08:42:03;;;;;;;5.83;3.30;;;;;;;20.55;52.26;96988.56;4902541;29;20525;-30
2023/04/22 08:44:29;;;;;;;5.27;3.10;;;;;;;20.52;52.19;96974.84;4877661;29;20254;-32
2023/04/22 08:46:56;;;;;;;3.57;3.13;;;;;;;20.57;52.19;96986.06;4880507;29;20217;-28
2023/04/22 08:49:24;;;;;;;6.83;2.97;;;;;;;20.59;52.36;96985.25;4899110;29;20230;-30
2023/04/22 08:51:51;;;;;;;4.93;3.10;;;;;;;20.59;52.51;96987.81;4918403;29;20249;-30
2023/04/22 08:54:18;;;;;;;6.97;3.20;;;;;;;20.54;52.13;96978.31;4912919;29;20643;-32
2023/04/22 08:56:45;;;;;;;3.50;2.80;;;;;;;20.59;52.21;96989.47;4907374;29;20289;-30
2023/04/22 08:59:12;;;;;;;7.27;2.73;;;;;;;20.50;52.35;96979.03;4912824;29;20230;-37
2023/04/22 09:01:41;;;;;;;5.90;3.20;;;;;;;20.58;52.37;96991.19;4917903;29;20288;-28
2023/04/22 09:04:08;;;;;;;14.87;3.37;;;;;;;20.60;52.55;96983.56;4901106;29;20261;-28
2023/04/22 09:06:36;;;;;;;7.93;2.93;;;;;;;20.59;52.34;96984.38;4912586;29;20288;-30
2023/04/22 09:09:03;;;;;;;4.23;2.60;;;;;;;20.59;52.08;96974.16;4895148;29;20250;-30
2023/04/22 09:11:30;;;;;;;6.37;3.30;;;;;;;20.60;52.26;96981.03;4897642;29;20238;-28
2023/04/22 09:13:56;;;;;;;10.60;3.07;;;;;;;20.58;52.76;96975.88;4922055;29;20205;-30
2023/04/22 09:16:23;;;;;;;6.23;3.20;;;;;;;20.58;52.28;96973.31;4914554;29;20241;-28
2023/04/22 09:18:50;;;;;;;7.37;3.10;;;;;;;20.58;52.68;96973.31;4908680;29;20226;-28
2023/04/22 09:21:16;;;;;;;7.50;2.83;;;;;;;20.59;52.08;96969.94;4904195;29;20226;-29
2023/04/22 09:23:50;;;;;;;4.20;2.87;;;;;;;20.59;52.34;96967.38;4907655;29;20203;-29
2023/04/22 09:26:21;;;;;;;8.60;3.40;;;;;;;20.59;52.15;96964.81;4913910;29;20300;-38
2023/04/22 09:28:57;;;;;;;4.27;3.30;;;;;;;20.57;52.54;96968.19;4914342;29;20222;-31
2023/04/22 09:31:24;;;;;;;8.93;4.00;;;;;;;20.61;52.21;96967.41;4894206;29;20209;-29
2023/04/22 09:33:55;;;;;;;6.03;3.40;;;;;;;20.62;52.04;96969.13;4915904;29;20213;-30
2023/04/22 09:36:26;;;;;;;8.03;4.10;;;;;;;20.62;51.53;96970.00;4911153;29;20208;-35
2023/04/22 09:38:53;;;;;;;4.77;3.77;;;;;;;20.63;51.70;96969.16;4896895;29;20769;-30
2023/04/22 09:41:29;;;;;;;5.37;3.63;;;;;;;20.62;51.75;96964.91;4907205;29;20309;-37
2023/04/22 09:43:56;;;;;;;4.83;3.40;;;;;;;20.64;51.58;96957.28;4927708;29;20208;-34
2023/04/22 09:46:24;;;;;;;5.83;3.67;;;;;;;20.64;51.63;96952.16;4912001;29;20300;-29
2023/04/22 09:48:54;;;;;;;6.20;3.73;;;;;;;20.66;51.51;96960.75;4924647;29;20232;-30
2023/04/22 09:51:21;;;;;;;6.07;3.40;;;;;;;20.62;51.49;96949.59;4917923;29;20233;-28
2023/04/22 09:54:03;;;;;;;4.00;3.53;;;;;;;20.67;51.42;96955.66;4926873;29;20213;-31
2023/04/22 09:56:44;;;;;;;6.13;3.63;;;;;;;20.69;51.52;96959.09;4905940;29;20270;-29
2023/04/22 09:59:10;;;;;;;4.67;3.50;;;;;;;20.68;51.79;96949.72;4909381;29;20786;-30
2023/04/22 10:01:40;;;;;;;6.23;3.50;;;;;;;20.70;51.89;96944.66;4915329;29;20213;-28
2023/04/22 10:04:13;;;;;;;5.47;3.50;;;;;;;20.69;52.00;96948.03;4905468;29;20672;-28
2023/04/22 10:06:40;;;;;;;4.30;3.10;;;;;;;20.70;51.78;96948.09;4918176;29;20217;-30
2023/04/22 10:09:06;;;;;;;3.60;3.10;;;;;;;20.70;51.80;96940.44;4920562;29;20806;-29
2023/04/22 10:11:35;;;;;;;4.97;3.50;;;;;;;20.71;52.37;96943.81;4921361;29;20201;-29
2023/04/22 10:14:01;;;;;;;4.57;3.30;;;;;;;20.71;52.06;96931.06;4916252;29;20708;-29
2023/04/22 10:16:30;;;;;;;4.43;3.27;;;;;;;20.70;51.98;96935.31;4899290;29;20205;-30
2023/04/22 10:18:57;;;;;;;6.63;3.90;;;;;;;20.66;51.99;96922.44;4912670;29;20249;-30
2023/04/22 10:21:24;;;;;;;5.57;3.57;;;;;;;20.62;51.93;96918.06;4886657;29;20364;-29
2023/04/22 10:23:51;;;;;;;4.50;3.27;;;;;;;20.72;51.85;96935.34;4886850;29;20237;-30
2023/04/22 10:26:40;;;;;;;5.03;3.43;;;;;;;20.71;51.68;96938.72;4926549;29;20248;-37
2023/04/22 10:29:08;;;;;;;6.93;3.10;;;;;;;20.70;51.99;96934.44;4906089;29;20225;-29
2023/04/22 10:31:37;;;;;;;5.20;3.37;;;;;;;20.70;51.89;96939.56;4904640;29;20206;-30
2023/04/22 10:34:13;;;;;;;4.30;3.30;;;;;;;20.70;51.87;96942.09;4907080;29;20210;-30
2023/04/22 10:37:09;;;;;;;5.43;3.00;;;;;;;20.69;51.78;96933.56;4910710;29;20678;-30
2023/04/22 10:39:37;;;;;;;4.47;3.10;;;;;;;20.69;51.91;96928.47;4903754;29;20232;-28
2023/04/22 10:42:09;;;;;;;4.90;3.17;;;;;;;20.69;51.91;96915.69;4908063;29;20557;-30
2023/04/22 10:44:49;;;;;;;3.17;2.87;;;;;;;20.69;51.88;96920.81;4914984;29;20255;-30
2023/04/22 10:47:30;;;;;;;4.63;3.00;;;;;;;20.67;52.05;96911.41;4900464;29;20206;-30
2023/04/22 10:50:15;;;;;;;3.23;2.93;;;;;;;20.68;51.98;96913.97;4905816;29;20272;-30
2023/04/22 10:52:44;;;;;;;3.80;3.10;;;;;;;20.68;52.24;96902.91;4921423;29;20226;-32
2023/04/22 10:55:11;;;;;;;4.80;3.40;;;;;;;20.61;51.95;96889.16;4907922;29;20706;-30
2023/04/22 10:57:42;;;;;;;3.20;2.90;;;;;;;20.68;51.97;96898.66;4916757;29;20202;-30
2023/04/22 11:00:38;;;;;;;4.83;3.07;;;;;;;20.67;52.23;96902.06;4924232;29;20230;-31
2023/04/22 11:03:24;;;;;;;3.70;2.93;;;;;;;20.68;52.06;96900.34;4905169;29;20291;-30
2023/04/22 11:06:12;;;;;;;3.50;3.20;;;;;;;20.68;51.99;96896.09;4897518;29;20210;-30
2023/04/22 11:08:44;;;;;;;4.37;2.80;;;;;;;20.65;52.00;96893.50;4905708;29;20313;-29
2023/04/22 11:11:12;;;;;;;4.03;2.87;;;;;;;20.69;52.51;96905.47;4886655;29;20201;-28
2023/04/22 11:13:42;;;;;;;3.13;2.83;;;;;;;20.69;51.93;96904.66;4923168;29;20333;-29
2023/04/22 11:16:09;;;;;;;3.07;2.70;;;;;;;20.68;51.96;96903.78;4901503;29;20233;-31
2023/04/22 11:18:36;;;;;;;3.90;3.13;;;;;;;20.70;51.58;96893.59;4907482;29;20218;-29
2023/04/22 11:21:08;;;;;;;3.63;2.80;;;;;;;20.59;51.85;96872.94;4888626;29;20228;-46
2023/04/22 11:23:35;;;;;;;3.10;2.70;;;;;;;20.45;51.70;96848.75;4919274;29;20229;-47
2023/04/22 11:26:05;;;;;;;3.07;2.77;;;;;;;20.29;52.07;96813.53;4922657;29;20194;-40
2023/04/22 11:28:32;;;;;;;4.47;2.90;;;;;;;20.19;52.07;96795.44;4918184;29;20262;-48
2023/04/22 11:31:05;;;;;;;3.53;2.73;;;;;;;20.29;52.02;96816.09;4926848;29;20281;-35
2023/04/22 11:33:33;;;;;;;6.10;2.80;;;;;;;20.35;51.95;96823.00;4912074;29;20253;-45
2023/04/22 11:35:59;;;;;;;4.27;3.23;;;;;;;20.45;51.94;96842.78;4931060;29;20183;-46
2023/04/22 11:38:26;;;;;;;3.97;2.90;;;;;;;20.21;51.99;96797.19;4939720;29;20265;-34